sensor_id;sensor_type;location;lat;lon;timestamp;P1;durP1;ratioP1;P2;durP2;ratioP2
21979;SDS011;11154;48.558;9.234;2022-11-15T00:00:51;5.57;;;3.08;;
21979;SDS011;11154;48.558;9.234;2022-11-15T00:02:53;3.38;;;3.00;;
21979;SDS011;11154;48.558;9.234;2022-11-15T00:04:55;4.78;;;2.83;;
21979;SDS011;11154;48.558;9.234;2022-11-15T00:06:56;5.18;;;3.00;;
21979;SDS011;11154;48.558;9.234;2022-11-15T00:08:58;4.00;;;3.17;;
21979;SDS011;11154;48.558;9.234;2022-11-15T00:11:01;7.78;;;3.45;;
21979;SDS011;11154;48.558;9.234;2022-11-15T00:13:04;4.70;;;3.22;;
21979;SDS011;11154;48.558;9.234;2022-11-15T00:15:07;5.32;;;3.55;;
21979;SDS011;11154;48.558;9.234;2022-11-15T00:17:10;4.70;;;3.38;;
21979;SDS011;11154;48.558;9.234;2022-11-15T00:19:12;5.75;;;2.55;;
21979;SDS011;11154;48.558;9.234;2022-11-15T00:21:14;4.53;;;2.80;;
21979;SDS011;11154;48.558;9.234;2022-11-15T00:23:16;4.30;;;2.60;;
21979;SDS011;11154;48.558;9.234;2022-11-15T00:25:18;4.40;;;2.38;;
21979;SDS011;11154;48.558;9.234;2022-11-15T00:27:19;3.95;;;2.90;;
21979;SDS011;11154;48.558;9.234;2022-11-15T00:29:21;3.28;;;2.47;;
21979;SDS011;11154;48.558;9.234;2022-11-15T00:31:22;11.57;;;3.35;;
21979;SDS011;11154;48.558;9.234;2022-11-15T00:33:25;4.47;;;3.08;;
21979;SDS011;11154;48.558;9.234;2022-11-15T00:35:27;4.53;;;3.10;;
21979;SDS011;11154;48.558;9.234;2022-11-15T00:37:29;3.50;;;3.20;;
21979;SDS011;11154;48.558;9.234;2022-11-15T00:39:30;4.03;;;3.50;;
21979;SDS011;11154;48.558;9.234;2022-11-15T00:41:32;5.40;;;4.07;;
21979;SDS011;11154;48.558;9.234;2022-11-15T00:43:34;3.95;;;3.53;;
21979;SDS011;11154;48.558;9.234;2022-11-15T00:45:37;4.03;;;3.63;;
21979;SDS011;11154;48.558;9.234;2022-11-15T00:47:38;4.63;;;4.07;;
21979;SDS011;11154;48.558;9.234;2022-11-15T00:49:41;5.32;;;4.22;;
21979;SDS011;11154;48.558;9.234;2022-11-15T00:51:43;5.63;;;4.00;;
21979;SDS011;11154;48.558;9.234;2022-11-15T00:53:44;4.68;;;3.63;;
21979;SDS011;11154;48.558;9.234;2022-11-15T00:55:46;4.38;;;3.92;;
21979;SDS011;11154;48.558;9.234;2022-11-15T00:57:47;6.22;;;4.13;;
21979;SDS011;11154;48.558;9.234;2022-11-15T00:59:49;4.22;;;3.83;;
21979;SDS011;11154;48.558;9.234;2022-11-15T01:01:50;6.43;;;4.30;;
21979;SDS011;11154;48.558;9.234;2022-11-15T01:03:52;5.30;;;4.38;;
21979;SDS011;11154;48.558;9.234;2022-11-15T01:05:56;6.75;;;4.63;;
21979;SDS011;11154;48.558;9.234;2022-11-15T01:08:00;5.25;;;4.00;;
21979;SDS011;11154;48.558;9.234;2022-11-15T01:10:01;6.00;;;4.30;;
21979;SDS011;11154;48.558;9.234;2022-11-15T01:12:04;5.15;;;4.38;;
21979;SDS011;11154;48.558;9.234;2022-11-15T01:14:06;5.45;;;4.35;;
21979;SDS011;11154;48.558;9.234;2022-11-15T01:16:08;6.90;;;4.40;;
21979;SDS011;11154;48.558;9.234;2022-11-15T01:18:11;5.35;;;4.55;;
21979;SDS011;11154;48.558;9.234;2022-11-15T01:20:13;4.85;;;4.10;;
21979;SDS011;11154;48.558;9.234;2022-11-15T01:22:16;5.22;;;4.13;;
21979;SDS011;11154;48.558;9.234;2022-11-15T01:24:17;4.82;;;3.80;;
21979;SDS011;11154;48.558;9.234;2022-11-15T01:26:19;5.38;;;3.80;;
21979;SDS011;11154;48.558;9.234;2022-11-15T01:28:21;4.32;;;3.92;;
21979;SDS011;11154;48.558;9.234;2022-11-15T01:30:22;6.60;;;4.53;;
21979;SDS011;11154;48.558;9.234;2022-11-15T01:32:24;5.57;;;4.57;;
21979;SDS011;11154;48.558;9.234;2022-11-15T01:34:25;5.43;;;4.85;;
21979;SDS011;11154;48.558;9.234;2022-11-15T01:36:27;6.18;;;4.90;;
21979;SDS011;11154;48.558;9.234;2022-11-15T01:38:30;5.30;;;4.38;;
21979;SDS011;11154;48.558;9.234;2022-11-15T01:40:32;7.97;;;4.70;;
21979;SDS011;11154;48.558;9.234;2022-11-15T01:42:33;4.50;;;4.10;;
21979;SDS011;11154;48.558;9.234;2022-11-15T01:44:38;6.00;;;4.70;;
21979;SDS011;11154;48.558;9.234;2022-11-15T01:46:42;5.97;;;4.25;;
21979;SDS011;11154;48.558;9.234;2022-11-15T01:48:46;6.05;;;4.45;;
21979;SDS011;11154;48.558;9.234;2022-11-15T01:50:50;5.50;;;4.30;;
21979;SDS011;11154;48.558;9.234;2022-11-15T01:52:52;4.82;;;4.13;;
21979;SDS011;11154;48.558;9.234;2022-11-15T01:54:56;5.95;;;4.50;;
21979;SDS011;11154;48.558;9.234;2022-11-15T01:57:03;4.70;;;3.67;;
21979;SDS011;11154;48.558;9.234;2022-11-15T01:59:08;5.20;;;4.10;;
21979;SDS011;11154;48.558;9.234;2022-11-15T02:01:11;5.50;;;4.15;;
21979;SDS011;11154;48.558;9.234;2022-11-15T02:03:13;5.38;;;4.13;;
21979;SDS011;11154;48.558;9.234;2022-11-15T02:05:15;5.95;;;3.83;;
21979;SDS011;11154;48.558;9.234;2022-11-15T02:07:17;5.43;;;4.25;;
21979;SDS011;11154;48.558;9.234;2022-11-15T02:09:21;7.65;;;4.13;;
21979;SDS011;11154;48.558;9.234;2022-11-15T02:11:24;4.80;;;4.07;;
21979;SDS011;11154;48.558;9.234;2022-11-15T02:13:27;4.93;;;3.97;;
21979;SDS011;11154;48.558;9.234;2022-11-15T02:15:30;6.28;;;4.20;;
21979;SDS011;11154;48.558;9.234;2022-11-15T02:17:48;6.70;;;4.10;;
21979;SDS011;11154;48.558;9.234;2022-11-15T02:22:35;5.30;;;4.63;;
21979;SDS011;11154;48.558;9.234;2022-11-15T02:24:57;4.50;;;4.07;;
21979;SDS011;11154;48.558;9.234;2022-11-15T02:32:24;4.65;;;3.65;;
21979;SDS011;11154;48.558;9.234;2022-11-15T02:34:34;6.30;;;4.47;;
21979;SDS011;11154;48.558;9.234;2022-11-15T02:36:47;4.85;;;3.90;;
21979;SDS011;11154;48.558;9.234;2022-11-15T02:38:57;4.50;;;3.72;;
21979;SDS011;11154;48.558;9.234;2022-11-15T02:41:04;5.55;;;4.47;;
21979;SDS011;11154;48.558;9.234;2022-11-15T02:43:12;5.28;;;4.35;;
21979;SDS011;11154;48.558;9.234;2022-11-15T02:45:39;5.47;;;4.55;;
21979;SDS011;11154;48.558;9.234;2022-11-15T02:47:45;4.90;;;4.30;;
21979;SDS011;11154;48.558;9.234;2022-11-15T02:49:51;4.53;;;3.97;;
21979;SDS011;11154;48.558;9.234;2022-11-15T02:51:54;6.88;;;4.97;;
21979;SDS011;11154;48.558;9.234;2022-11-15T02:53:56;6.28;;;4.88;;
21979;SDS011;11154;48.558;9.234;2022-11-15T02:55:58;5.88;;;4.57;;
21979;SDS011;11154;48.558;9.234;2022-11-15T02:58:06;6.10;;;4.72;;
21979;SDS011;11154;48.558;9.234;2022-11-15T03:00:20;5.25;;;4.53;;
21979;SDS011;11154;48.558;9.234;2022-11-15T03:02:27;5.25;;;4.68;;
21979;SDS011;11154;48.558;9.234;2022-11-15T03:04:50;5.90;;;4.22;;
21979;SDS011;11154;48.558;9.234;2022-11-15T03:06:57;5.28;;;4.75;;
21979;SDS011;11154;48.558;9.234;2022-11-15T03:09:09;5.25;;;4.45;;
21979;SDS011;11154;48.558;9.234;2022-11-15T03:11:16;5.53;;;4.10;;
21979;SDS011;11154;48.558;9.234;2022-11-15T03:13:21;6.38;;;4.72;;
21979;SDS011;11154;48.558;9.234;2022-11-15T03:15:28;5.32;;;4.38;;
21979;SDS011;11154;48.558;9.234;2022-11-15T03:17:34;5.25;;;4.60;;
21979;SDS011;11154;48.558;9.234;2022-11-15T03:19:40;5.32;;;4.45;;
21979;SDS011;11154;48.558;9.234;2022-11-15T03:21:46;5.72;;;4.57;;
21979;SDS011;11154;48.558;9.234;2022-11-15T03:23:50;4.78;;;4.28;;
21979;SDS011;11154;48.558;9.234;2022-11-15T03:25:55;5.22;;;4.63;;
21979;SDS011;11154;48.558;9.234;2022-11-15T03:27:59;5.22;;;4.65;;
21979;SDS011;11154;48.558;9.234;2022-11-15T03:30:05;5.50;;;4.25;;
21979;SDS011;11154;48.558;9.234;2022-11-15T03:32:09;5.90;;;4.38;;
21979;SDS011;11154;48.558;9.234;2022-11-15T03:34:19;6.93;;;4.03;;
21979;SDS011;11154;48.558;9.234;2022-11-15T03:36:25;6.30;;;4.30;;
21979;SDS011;11154;48.558;9.234;2022-11-15T03:38:29;5.13;;;3.90;;
21979;SDS011;11154;48.558;9.234;2022-11-15T03:40:35;5.20;;;3.97;;
21979;SDS011;11154;48.558;9.234;2022-11-15T03:42:41;4.72;;;3.95;;
21979;SDS011;11154;48.558;9.234;2022-11-15T03:44:49;7.28;;;3.95;;
21979;SDS011;11154;48.558;9.234;2022-11-15T03:46:57;5.30;;;4.50;;
21979;SDS011;11154;48.558;9.234;2022-11-15T03:49:06;4.45;;;3.78;;
21979;SDS011;11154;48.558;9.234;2022-11-15T03:51:12;4.82;;;3.80;;
21979;SDS011;11154;48.558;9.234;2022-11-15T03:53:15;4.95;;;3.88;;
21979;SDS011;11154;48.558;9.234;2022-11-15T03:55:17;4.00;;;3.60;;
21979;SDS011;11154;48.558;9.234;2022-11-15T03:57:20;4.05;;;3.65;;
21979;SDS011;11154;48.558;9.234;2022-11-15T03:59:22;4.47;;;3.75;;
21979;SDS011;11154;48.558;9.234;2022-11-15T04:01:24;4.30;;;3.67;;
21979;SDS011;11154;48.558;9.234;2022-11-15T04:03:25;6.43;;;3.60;;
21979;SDS011;11154;48.558;9.234;2022-11-15T04:05:27;3.67;;;3.17;;
21979;SDS011;11154;48.558;9.234;2022-11-15T04:07:30;5.15;;;3.42;;
21979;SDS011;11154;48.558;9.234;2022-11-15T04:09:32;3.97;;;3.22;;
21979;SDS011;11154;48.558;9.234;2022-11-15T04:11:54;4.05;;;3.13;;
21979;SDS011;11154;48.558;9.234;2022-11-15T04:13:56;3.80;;;2.88;;
21979;SDS011;11154;48.558;9.234;2022-11-15T04:15:58;4.47;;;2.70;;
21979;SDS011;11154;48.558;9.234;2022-11-15T04:17:59;4.15;;;2.58;;
21979;SDS011;11154;48.558;9.234;2022-11-15T04:20:01;3.97;;;1.88;;
21979;SDS011;11154;48.558;9.234;2022-11-15T04:22:17;3.97;;;2.35;;
21979;SDS011;11154;48.558;9.234;2022-11-15T04:24:37;3.00;;;2.60;;
21979;SDS011;11154;48.558;9.234;2022-11-15T04:26:39;3.58;;;2.90;;
21979;SDS011;11154;48.558;9.234;2022-11-15T04:28:40;3.22;;;2.10;;
21979;SDS011;11154;48.558;9.234;2022-11-15T04:30:56;6.55;;;4.10;;
21979;SDS011;11154;48.558;9.234;2022-11-15T04:32:57;5.10;;;2.80;;
21979;SDS011;11154;48.558;9.234;2022-11-15T04:34:59;3.90;;;2.58;;
21979;SDS011;11154;48.558;9.234;2022-11-15T04:37:01;6.20;;;2.90;;
21979;SDS011;11154;48.558;9.234;2022-11-15T04:39:13;4.88;;;2.67;;
21979;SDS011;11154;48.558;9.234;2022-11-15T04:41:16;3.65;;;2.65;;
21979;SDS011;11154;48.558;9.234;2022-11-15T04:43:19;4.28;;;3.17;;
21979;SDS011;11154;48.558;9.234;2022-11-15T04:45:20;6.93;;;2.58;;
21979;SDS011;11154;48.558;9.234;2022-11-15T04:47:22;3.58;;;2.90;;
21979;SDS011;11154;48.558;9.234;2022-11-15T04:49:23;5.55;;;3.05;;
21979;SDS011;11154;48.558;9.234;2022-11-15T04:51:25;4.05;;;2.80;;
21979;SDS011;11154;48.558;9.234;2022-11-15T04:53:27;6.93;;;3.42;;
21979;SDS011;11154;48.558;9.234;2022-11-15T04:55:29;3.00;;;2.50;;
21979;SDS011;11154;48.558;9.234;2022-11-15T04:57:32;6.57;;;2.90;;
21979;SDS011;11154;48.558;9.234;2022-11-15T04:59:33;4.95;;;3.10;;
21979;SDS011;11154;48.558;9.234;2022-11-15T05:01:35;4.50;;;2.80;;
21979;SDS011;11154;48.558;9.234;2022-11-15T05:03:38;5.07;;;2.80;;
21979;SDS011;11154;48.558;9.234;2022-11-15T05:05:57;4.93;;;3.00;;
21979;SDS011;11154;48.558;9.234;2022-11-15T05:07:58;3.47;;;2.70;;
21979;SDS011;11154;48.558;9.234;2022-11-15T05:10:00;4.38;;;2.92;;
21979;SDS011;11154;48.558;9.234;2022-11-15T05:12:01;5.07;;;3.38;;
21979;SDS011;11154;48.558;9.234;2022-11-15T05:14:05;7.75;;;4.80;;
21979;SDS011;11154;48.558;9.234;2022-11-15T05:16:06;7.63;;;4.80;;
21979;SDS011;11154;48.558;9.234;2022-11-15T05:18:08;5.85;;;4.68;;
21979;SDS011;11154;48.558;9.234;2022-11-15T05:20:10;6.05;;;4.22;;
21979;SDS011;11154;48.558;9.234;2022-11-15T05:22:12;11.20;;;7.70;;
21979;SDS011;11154;48.558;9.234;2022-11-15T05:24:13;7.53;;;4.75;;
21979;SDS011;11154;48.558;9.234;2022-11-15T05:26:15;6.85;;;4.55;;
21979;SDS011;11154;48.558;9.234;2022-11-15T05:28:18;4.90;;;3.55;;
21979;SDS011;11154;48.558;9.234;2022-11-15T05:30:21;3.13;;;2.60;;
21979;SDS011;11154;48.558;9.234;2022-11-15T05:32:23;4.63;;;3.50;;
21979;SDS011;11154;48.558;9.234;2022-11-15T05:34:25;5.90;;;3.42;;
21979;SDS011;11154;48.558;9.234;2022-11-15T05:36:28;8.63;;;3.70;;
21979;SDS011;11154;48.558;9.234;2022-11-15T05:38:34;5.55;;;3.50;;
21979;SDS011;11154;48.558;9.234;2022-11-15T05:40:36;6.22;;;4.13;;
21979;SDS011;11154;48.558;9.234;2022-11-15T05:42:37;4.95;;;3.22;;
21979;SDS011;11154;48.558;9.234;2022-11-15T05:44:40;6.57;;;4.93;;
21979;SDS011;11154;48.558;9.234;2022-11-15T05:46:46;5.80;;;3.20;;
21979;SDS011;11154;48.558;9.234;2022-11-15T05:48:50;4.32;;;3.45;;
21979;SDS011;11154;48.558;9.234;2022-11-15T05:50:54;3.42;;;2.88;;
21979;SDS011;11154;48.558;9.234;2022-11-15T05:52:57;4.10;;;3.20;;
21979;SDS011;11154;48.558;9.234;2022-11-15T05:54:59;5.20;;;3.38;;
21979;SDS011;11154;48.558;9.234;2022-11-15T05:57:00;5.20;;;2.75;;
21979;SDS011;11154;48.558;9.234;2022-11-15T05:59:02;4.05;;;3.10;;
21979;SDS011;11154;48.558;9.234;2022-11-15T06:01:05;8.73;;;3.47;;
21979;SDS011;11154;48.558;9.234;2022-11-15T06:03:08;5.78;;;3.40;;
21979;SDS011;11154;48.558;9.234;2022-11-15T06:05:10;7.70;;;3.45;;
21979;SDS011;11154;48.558;9.234;2022-11-15T06:07:12;7.82;;;4.38;;
21979;SDS011;11154;48.558;9.234;2022-11-15T06:09:13;5.57;;;4.22;;
21979;SDS011;11154;48.558;9.234;2022-11-15T06:11:15;9.68;;;3.83;;
21979;SDS011;11154;48.558;9.234;2022-11-15T06:13:17;4.72;;;3.45;;
21979;SDS011;11154;48.558;9.234;2022-11-15T06:15:19;5.10;;;4.30;;
21979;SDS011;11154;48.558;9.234;2022-11-15T06:17:21;6.47;;;3.67;;
21979;SDS011;11154;48.558;9.234;2022-11-15T06:19:23;6.15;;;4.68;;
21979;SDS011;11154;48.558;9.234;2022-11-15T06:21:25;4.88;;;3.67;;
21979;SDS011;11154;48.558;9.234;2022-11-15T06:23:31;4.72;;;3.42;;
21979;SDS011;11154;48.558;9.234;2022-11-15T06:25:33;4.38;;;3.45;;
21979;SDS011;11154;48.558;9.234;2022-11-15T06:27:35;5.70;;;3.80;;
21979;SDS011;11154;48.558;9.234;2022-11-15T06:29:37;2.92;;;2.63;;
21979;SDS011;11154;48.558;9.234;2022-11-15T06:31:38;6.70;;;3.90;;
21979;SDS011;11154;48.558;9.234;2022-11-15T06:33:41;4.85;;;3.60;;
21979;SDS011;11154;48.558;9.234;2022-11-15T06:35:44;8.18;;;4.07;;
21979;SDS011;11154;48.558;9.234;2022-11-15T06:37:47;9.50;;;5.88;;
21979;SDS011;11154;48.558;9.234;2022-11-15T06:39:48;6.72;;;3.63;;
21979;SDS011;11154;48.558;9.234;2022-11-15T06:41:50;4.70;;;3.50;;
21979;SDS011;11154;48.558;9.234;2022-11-15T06:43:52;5.30;;;4.20;;
21979;SDS011;11154;48.558;9.234;2022-11-15T06:45:53;9.13;;;6.93;;
21979;SDS011;11154;48.558;9.234;2022-11-15T06:47:55;6.03;;;5.15;;
21979;SDS011;11154;48.558;9.234;2022-11-15T06:49:57;8.32;;;4.15;;
21979;SDS011;11154;48.558;9.234;2022-11-15T06:52:00;4.97;;;3.28;;
21979;SDS011;11154;48.558;9.234;2022-11-15T06:54:01;6.38;;;4.53;;
21979;SDS011;11154;48.558;9.234;2022-11-15T06:56:03;12.95;;;7.35;;
21979;SDS011;11154;48.558;9.234;2022-11-15T06:58:07;22.48;;;13.35;;
21979;SDS011;11154;48.558;9.234;2022-11-15T07:00:09;28.58;;;16.40;;
21979;SDS011;11154;48.558;9.234;2022-11-15T07:02:13;11.75;;;6.05;;
21979;SDS011;11154;48.558;9.234;2022-11-15T07:04:15;10.35;;;5.43;;
21979;SDS011;11154;48.558;9.234;2022-11-15T07:06:17;4.95;;;3.42;;
21979;SDS011;11154;48.558;9.234;2022-11-15T07:08:20;9.02;;;5.57;;
21979;SDS011;11154;48.558;9.234;2022-11-15T07:10:21;11.27;;;5.68;;
21979;SDS011;11154;48.558;9.234;2022-11-15T07:12:26;7.40;;;3.92;;
21979;SDS011;11154;48.558;9.234;2022-11-15T07:14:28;5.32;;;3.38;;
21979;SDS011;11154;48.558;9.234;2022-11-15T07:16:29;6.68;;;3.42;;
21979;SDS011;11154;48.558;9.234;2022-11-15T07:18:33;7.90;;;3.58;;
21979;SDS011;11154;48.558;9.234;2022-11-15T07:20:35;7.43;;;3.15;;
21979;SDS011;11154;48.558;9.234;2022-11-15T07:22:36;4.00;;;2.72;;
21979;SDS011;11154;48.558;9.234;2022-11-15T07:24:39;5.95;;;3.10;;
21979;SDS011;11154;48.558;9.234;2022-11-15T07:26:41;4.68;;;2.97;;
21979;SDS011;11154;48.558;9.234;2022-11-15T07:28:42;6.68;;;3.20;;
21979;SDS011;11154;48.558;9.234;2022-11-15T07:30:44;7.10;;;2.95;;
21979;SDS011;11154;48.558;9.234;2022-11-15T07:32:46;4.22;;;3.00;;
21979;SDS011;11154;48.558;9.234;2022-11-15T07:34:47;5.47;;;4.28;;
21979;SDS011;11154;48.558;9.234;2022-11-15T07:36:49;5.47;;;3.60;;
21979;SDS011;11154;48.558;9.234;2022-11-15T07:38:50;6.05;;;3.22;;
21979;SDS011;11154;48.558;9.234;2022-11-15T07:40:56;8.98;;;5.22;;
21979;SDS011;11154;48.558;9.234;2022-11-15T07:43:00;5.13;;;3.50;;
21979;SDS011;11154;48.558;9.234;2022-11-15T07:45:02;6.20;;;3.75;;
21979;SDS011;11154;48.558;9.234;2022-11-15T07:47:05;5.47;;;3.28;;
21979;SDS011;11154;48.558;9.234;2022-11-15T07:49:06;5.97;;;2.97;;
21979;SDS011;11154;48.558;9.234;2022-11-15T07:51:09;5.18;;;3.58;;
21979;SDS011;11154;48.558;9.234;2022-11-15T07:53:12;5.20;;;3.50;;
21979;SDS011;11154;48.558;9.234;2022-11-15T07:55:14;5.35;;;3.30;;
21979;SDS011;11154;48.558;9.234;2022-11-15T07:57:17;6.15;;;4.18;;
21979;SDS011;11154;48.558;9.234;2022-11-15T07:59:19;5.18;;;3.42;;
21979;SDS011;11154;48.558;9.234;2022-11-15T08:01:20;6.25;;;4.28;;
21979;SDS011;11154;48.558;9.234;2022-11-15T08:03:22;5.10;;;3.60;;
21979;SDS011;11154;48.558;9.234;2022-11-15T08:05:23;5.13;;;3.97;;
21979;SDS011;11154;48.558;9.234;2022-11-15T08:07:27;7.53;;;4.63;;
21979;SDS011;11154;48.558;9.234;2022-11-15T08:09:30;6.90;;;4.05;;
21979;SDS011;11154;48.558;9.234;2022-11-15T08:11:31;8.07;;;4.10;;
21979;SDS011;11154;48.558;9.234;2022-11-15T08:13:34;7.30;;;4.15;;
21979;SDS011;11154;48.558;9.234;2022-11-15T08:15:36;7.60;;;4.10;;
21979;SDS011;11154;48.558;9.234;2022-11-15T08:17:38;7.72;;;4.72;;
21979;SDS011;11154;48.558;9.234;2022-11-15T08:19:40;5.22;;;3.83;;
21979;SDS011;11154;48.558;9.234;2022-11-15T08:21:42;6.65;;;4.20;;
21979;SDS011;11154;48.558;9.234;2022-11-15T08:23:43;7.55;;;4.05;;
21979;SDS011;11154;48.558;9.234;2022-11-15T08:25:45;6.45;;;4.55;;
21979;SDS011;11154;48.558;9.234;2022-11-15T08:27:47;6.03;;;4.70;;
21979;SDS011;11154;48.558;9.234;2022-11-15T08:29:50;9.23;;;4.50;;
21979;SDS011;11154;48.558;9.234;2022-11-15T08:31:54;5.57;;;4.45;;
21979;SDS011;11154;48.558;9.234;2022-11-15T08:33:55;6.40;;;4.32;;
21979;SDS011;11154;48.558;9.234;2022-11-15T08:35:57;7.55;;;4.10;;
21979;SDS011;11154;48.558;9.234;2022-11-15T08:37:59;5.85;;;4.55;;
21979;SDS011;11154;48.558;9.234;2022-11-15T08:40:01;6.38;;;4.57;;
21979;SDS011;11154;48.558;9.234;2022-11-15T08:42:02;8.43;;;5.10;;
21979;SDS011;11154;48.558;9.234;2022-11-15T08:44:04;7.85;;;4.72;;
21979;SDS011;11154;48.558;9.234;2022-11-15T08:46:08;21.40;;;12.45;;
21979;SDS011;11154;48.558;9.234;2022-11-15T08:48:13;18.80;;;11.32;;
21979;SDS011;11154;48.558;9.234;2022-11-15T08:50:15;19.48;;;13.40;;
21979;SDS011;11154;48.558;9.234;2022-11-15T08:52:17;12.25;;;8.60;;
21979;SDS011;11154;48.558;9.234;2022-11-15T08:54:19;12.90;;;7.97;;
21979;SDS011;11154;48.558;9.234;2022-11-15T08:56:21;8.93;;;5.93;;
21979;SDS011;11154;48.558;9.234;2022-11-15T08:58:23;8.10;;;5.18;;
21979;SDS011;11154;48.558;9.234;2022-11-15T09:00:24;8.10;;;4.90;;
21979;SDS011;11154;48.558;9.234;2022-11-15T09:02:29;7.28;;;4.82;;
21979;SDS011;11154;48.558;9.234;2022-11-15T09:04:30;8.18;;;4.68;;
21979;SDS011;11154;48.558;9.234;2022-11-15T09:06:32;10.15;;;4.45;;
21979;SDS011;11154;48.558;9.234;2022-11-15T09:08:34;6.88;;;4.47;;
21979;SDS011;11154;48.558;9.234;2022-11-15T09:10:35;6.45;;;4.20;;
21979;SDS011;11154;48.558;9.234;2022-11-15T09:12:37;8.50;;;4.20;;
21979;SDS011;11154;48.558;9.234;2022-11-15T09:14:38;7.63;;;4.22;;
21979;SDS011;11154;48.558;9.234;2022-11-15T09:16:40;6.32;;;4.43;;
21979;SDS011;11154;48.558;9.234;2022-11-15T09:18:43;6.90;;;4.82;;
21979;SDS011;11154;48.558;9.234;2022-11-15T09:20:45;6.22;;;4.57;;
21979;SDS011;11154;48.558;9.234;2022-11-15T09:22:46;9.07;;;4.85;;
21979;SDS011;11154;48.558;9.234;2022-11-15T09:24:48;9.15;;;4.68;;
21979;SDS011;11154;48.558;9.234;2022-11-15T09:26:49;7.22;;;4.75;;
21979;SDS011;11154;48.558;9.234;2022-11-15T09:28:51;10.80;;;5.22;;
21979;SDS011;11154;48.558;9.234;2022-11-15T09:30:55;11.52;;;4.80;;
21979;SDS011;11154;48.558;9.234;2022-11-15T09:32:58;8.75;;;4.85;;
21979;SDS011;11154;48.558;9.234;2022-11-15T09:35:08;8.98;;;4.95;;
21979;SDS011;11154;48.558;9.234;2022-11-15T09:37:10;10.05;;;5.13;;
21979;SDS011;11154;48.558;9.234;2022-11-15T09:39:12;10.50;;;5.32;;
21979;SDS011;11154;48.558;9.234;2022-11-15T09:41:20;8.27;;;5.05;;
21979;SDS011;11154;48.558;9.234;2022-11-15T09:43:35;6.90;;;4.60;;
21979;SDS011;11154;48.558;9.234;2022-11-15T09:45:47;7.38;;;4.63;;
21979;SDS011;11154;48.558;9.234;2022-11-15T09:48:08;7.35;;;4.50;;
21979;SDS011;11154;48.558;9.234;2022-11-15T09:50:34;7.72;;;5.13;;
21979;SDS011;11154;48.558;9.234;2022-11-15T09:52:41;6.82;;;4.80;;
21979;SDS011;11154;48.558;9.234;2022-11-15T09:54:46;7.10;;;4.95;;
21979;SDS011;11154;48.558;9.234;2022-11-15T09:56:50;7.00;;;4.68;;
21979;SDS011;11154;48.558;9.234;2022-11-15T09:58:54;8.38;;;4.90;;
21979;SDS011;11154;48.558;9.234;2022-11-15T10:01:06;7.97;;;4.70;;
21979;SDS011;11154;48.558;9.234;2022-11-15T10:03:14;6.60;;;4.93;;
21979;SDS011;11154;48.558;9.234;2022-11-15T10:05:19;6.22;;;4.55;;
21979;SDS011;11154;48.558;9.234;2022-11-15T10:07:26;6.80;;;4.22;;
21979;SDS011;11154;48.558;9.234;2022-11-15T10:09:34;9.43;;;4.75;;
21979;SDS011;11154;48.558;9.234;2022-11-15T10:11:41;14.38;;;6.07;;
21979;SDS011;11154;48.558;9.234;2022-11-15T10:13:44;9.98;;;6.57;;
21979;SDS011;11154;48.558;9.234;2022-11-15T10:15:47;10.38;;;6.60;;
21979;SDS011;11154;48.558;9.234;2022-11-15T10:20:11;8.95;;;5.18;;
21979;SDS011;11154;48.558;9.234;2022-11-15T10:22:21;7.53;;;5.43;;
21979;SDS011;11154;48.558;9.234;2022-11-15T10:24:28;8.80;;;5.13;;
21979;SDS011;11154;48.558;9.234;2022-11-15T10:26:35;7.55;;;4.57;;
21979;SDS011;11154;48.558;9.234;2022-11-15T10:28:36;9.85;;;4.45;;
21979;SDS011;11154;48.558;9.234;2022-11-15T10:30:39;8.45;;;4.40;;
21979;SDS011;11154;48.558;9.234;2022-11-15T10:32:42;6.50;;;4.60;;
21979;SDS011;11154;48.558;9.234;2022-11-15T10:34:45;20.23;;;13.57;;
21979;SDS011;11154;48.558;9.234;2022-11-15T10:36:53;12.95;;;6.07;;
21979;SDS011;11154;48.558;9.234;2022-11-15T10:38:57;8.20;;;4.57;;
21979;SDS011;11154;48.558;9.234;2022-11-15T10:41:06;8.10;;;4.90;;
21979;SDS011;11154;48.558;9.234;2022-11-15T10:43:13;6.70;;;4.30;;
21979;SDS011;11154;48.558;9.234;2022-11-15T10:45:24;6.28;;;4.30;;
21979;SDS011;11154;48.558;9.234;2022-11-15T10:47:28;8.07;;;4.75;;
21979;SDS011;11154;48.558;9.234;2022-11-15T10:49:32;6.35;;;4.78;;
21979;SDS011;11154;48.558;9.234;2022-11-15T10:51:34;8.32;;;4.80;;
21979;SDS011;11154;48.558;9.234;2022-11-15T10:53:43;8.70;;;5.00;;
21979;SDS011;11154;48.558;9.234;2022-11-15T10:55:48;6.82;;;4.30;;
21979;SDS011;11154;48.558;9.234;2022-11-15T10:57:52;8.02;;;4.65;;
21979;SDS011;11154;48.558;9.234;2022-11-15T10:59:55;6.70;;;3.55;;
21979;SDS011;11154;48.558;9.234;2022-11-15T11:01:59;5.93;;;4.00;;
21979;SDS011;11154;48.558;9.234;2022-11-15T11:04:02;6.45;;;4.25;;
21979;SDS011;11154;48.558;9.234;2022-11-15T11:06:07;6.18;;;4.35;;
21979;SDS011;11154;48.558;9.234;2022-11-15T11:08:20;9.30;;;4.40;;
21979;SDS011;11154;48.558;9.234;2022-11-15T11:10:24;13.57;;;5.75;;
21979;SDS011;11154;48.558;9.234;2022-11-15T11:12:29;9.90;;;4.60;;
21979;SDS011;11154;48.558;9.234;2022-11-15T11:14:33;6.90;;;4.85;;
21979;SDS011;11154;48.558;9.234;2022-11-15T11:16:41;8.93;;;5.05;;
21979;SDS011;11154;48.558;9.234;2022-11-15T11:18:48;6.32;;;5.03;;
21979;SDS011;11154;48.558;9.234;2022-11-15T11:20:57;10.02;;;5.65;;
21979;SDS011;11154;48.558;9.234;2022-11-15T11:23:11;8.45;;;5.00;;
21979;SDS011;11154;48.558;9.234;2022-11-15T11:25:28;8.93;;;5.47;;
21979;SDS011;11154;48.558;9.234;2022-11-15T11:27:41;7.88;;;5.00;;
21979;SDS011;11154;48.558;9.234;2022-11-15T11:29:52;8.05;;;5.40;;
21979;SDS011;11154;48.558;9.234;2022-11-15T11:32:07;10.00;;;5.65;;
21979;SDS011;11154;48.558;9.234;2022-11-15T11:34:29;11.68;;;5.63;;
21979;SDS011;11154;48.558;9.234;2022-11-15T11:36:39;7.60;;;5.10;;
21979;SDS011;11154;48.558;9.234;2022-11-15T11:41:19;8.60;;;5.32;;
21979;SDS011;11154;48.558;9.234;2022-11-15T11:43:33;11.77;;;5.80;;
21979;SDS011;11154;48.558;9.234;2022-11-15T11:45:44;6.72;;;4.68;;
21979;SDS011;11154;48.558;9.234;2022-11-15T11:48:03;10.45;;;5.00;;
21979;SDS011;11154;48.558;9.234;2022-11-15T11:50:14;6.78;;;4.50;;
21979;SDS011;11154;48.558;9.234;2022-11-15T11:52:22;6.72;;;4.78;;
21979;SDS011;11154;48.558;9.234;2022-11-15T11:54:31;8.10;;;4.45;;
21979;SDS011;11154;48.558;9.234;2022-11-15T11:56:39;4.97;;;3.65;;
21979;SDS011;11154;48.558;9.234;2022-11-15T11:58:44;6.85;;;4.18;;
21979;SDS011;11154;48.558;9.234;2022-11-15T12:00:49;6.10;;;4.25;;
21979;SDS011;11154;48.558;9.234;2022-11-15T12:02:57;9.25;;;7.63;;
21979;SDS011;11154;48.558;9.234;2022-11-15T12:05:09;8.57;;;4.88;;
21979;SDS011;11154;48.558;9.234;2022-11-15T12:07:15;5.60;;;3.63;;
21979;SDS011;11154;48.558;9.234;2022-11-15T12:09:21;6.55;;;5.50;;
21979;SDS011;11154;48.558;9.234;2022-11-15T12:11:35;6.78;;;5.20;;
21979;SDS011;11154;48.558;9.234;2022-11-15T12:13:44;7.80;;;4.72;;
21979;SDS011;11154;48.558;9.234;2022-11-15T12:15:52;6.00;;;4.22;;
21979;SDS011;11154;48.558;9.234;2022-11-15T12:18:01;6.28;;;4.50;;
21979;SDS011;11154;48.558;9.234;2022-11-15T12:20:03;6.53;;;4.38;;
21979;SDS011;11154;48.558;9.234;2022-11-15T12:22:16;5.50;;;4.10;;
21979;SDS011;11154;48.558;9.234;2022-11-15T12:24:23;7.10;;;4.15;;
21979;SDS011;11154;48.558;9.234;2022-11-15T12:26:28;5.28;;;4.03;;
21979;SDS011;11154;48.558;9.234;2022-11-15T12:28:35;5.95;;;3.67;;
21979;SDS011;11154;48.558;9.234;2022-11-15T12:30:45;4.30;;;3.53;;
21979;SDS011;11154;48.558;9.234;2022-11-15T12:32:52;5.55;;;4.00;;
21979;SDS011;11154;48.558;9.234;2022-11-15T12:34:56;5.45;;;4.00;;
21979;SDS011;11154;48.558;9.234;2022-11-15T12:37:00;6.75;;;3.70;;
21979;SDS011;11154;48.558;9.234;2022-11-15T12:39:02;5.35;;;3.90;;
21979;SDS011;11154;48.558;9.234;2022-11-15T12:41:12;7.93;;;5.70;;